sensor_id;sensor_type;location;lat;lon;timestamp;pressure;altitude;pressure_sealevel;temperature;humidity
31044;BME280;17710;52.520;13.352;2022-07-06T00:01:55;101687.03;;;24.09;33.44
31044;BME280;17710;52.520;13.352;2022-07-06T00:04:22;101689.53;;;23.88;34.04
31044;BME280;17710;52.520;13.352;2022-07-06T00:06:49;101689.75;;;23.85;33.93
31044;BME280;17710;52.520;13.352;2022-07-06T00:09:15;101687.81;;;23.98;33.80
31044;BME280;17710;52.520;13.352;2022-07-06T00:11:42;101683.97;;;23.90;34.33
31044;BME280;17710;52.520;13.352;2022-07-06T00:16:36;101678.38;;;23.93;34.13
31044;BME280;17710;52.520;13.352;2022-07-06T00:19:03;101684.41;;;23.72;34.58
31044;BME280;17710;52.520;13.352;2022-07-06T00:21:29;101683.16;;;23.89;34.54
31044;BME280;17710;52.520;13.352;2022-07-06T00:23:55;101672.59;;;23.97;34.18
31044;BME280;17710;52.520;13.352;2022-07-06T00:26:22;101689.56;;;23.99;34.52
31044;BME280;17710;52.520;13.352;2022-07-06T00:28:48;101678.16;;;23.96;34.52
31044;BME280;17710;52.520;13.352;2022-07-06T00:31:16;101685.09;;;23.87;34.71
31044;BME280;17710;52.520;13.352;2022-07-06T00:33:42;101688.16;;;23.59;35.24
31044;BME280;17710;52.520;13.352;2022-07-06T00:36:09;101693.94;;;23.65;35.22
31044;BME280;17710;52.520;13.352;2022-07-06T00:38:35;101689.19;;;23.69;35.35
31044;BME280;17710;52.520;13.352;2022-07-06T00:41:02;101679.41;;;23.79;35.29
31044;BME280;17710;52.520;13.352;2022-07-06T00:43:28;101679.13;;;23.71;35.28
31044;BME280;17710;52.520;13.352;2022-07-06T00:45:55;101684.13;;;23.88;35.01
31044;BME280;17710;52.520;13.352;2022-07-06T00:48:22;101688.41;;;23.91;34.93
31044;BME280;17710;52.520;13.352;2022-07-06T00:50:49;101684.88;;;23.66;35.36
31044;BME280;17710;52.520;13.352;2022-07-06T00:53:15;101691.16;;;23.67;35.20
31044;BME280;17710;52.520;13.352;2022-07-06T00:55:42;101689.84;;;23.49;35.54
31044;BME280;17710;52.520;13.352;2022-07-06T00:58:09;101695.13;;;23.37;35.80
31044;BME280;17710;52.520;13.352;2022-07-06T01:00:36;101694.84;;;23.29;35.89
31044;BME280;17710;52.520;13.352;2022-07-06T01:03:03;101694.09;;;23.27;35.91
31044;BME280;17710;52.520;13.352;2022-07-06T01:05:31;101701.00;;;23.19;36.09
31044;BME280;17710;52.520;13.352;2022-07-06T01:07:57;101698.69;;;23.38;35.92
31044;BME280;17710;52.520;13.352;2022-07-06T01:10:26;101701.88;;;23.56;35.63
31044;BME280;17710;52.520;13.352;2022-07-06T01:12:53;101696.38;;;23.44;35.64
31044;BME280;17710;52.520;13.352;2022-07-06T01:15:22;101691.75;;;23.47;35.65
31044;BME280;17710;52.520;13.352;2022-07-06T01:17:49;101686.44;;;23.58;35.59
31044;BME280;17710;52.520;13.352;2022-07-06T01:20:18;101692.88;;;23.68;35.51
31044;BME280;17710;52.520;13.352;2022-07-06T01:22:46;101693.09;;;23.65;35.49
31044;BME280;17710;52.520;13.352;2022-07-06T01:25:13;101700.84;;;23.69;35.38
31044;BME280;17710;52.520;13.352;2022-07-06T01:27:40;101699.78;;;23.35;35.94
31044;BME280;17710;52.520;13.352;2022-07-06T01:30:09;101700.34;;;23.28;36.09
31044;BME280;17710;52.520;13.352;2022-07-06T01:32:36;101699.44;;;23.40;36.08
31044;BME280;17710;52.520;13.352;2022-07-06T01:35:05;101701.13;;;23.54;35.98
31044;BME280;17710;52.520;13.352;2022-07-06T01:37:39;101689.66;;;23.26;36.75
31044;BME280;17710;52.520;13.352;2022-07-06T01:40:08;101688.03;;;23.36;36.55
31044;BME280;17710;52.520;13.352;2022-07-06T01:42:35;101687.56;;;23.42;36.41
31044;BME280;17710;52.520;13.352;2022-07-06T01:45:01;101680.56;;;23.40;36.49
31044;BME280;17710;52.520;13.352;2022-07-06T01:47:28;101686.69;;;23.42;36.58
31044;BME280;17710;52.520;13.352;2022-07-06T01:49:57;101687.75;;;23.52;36.49
31044;BME280;17710;52.520;13.352;2022-07-06T01:52:24;101679.06;;;23.49;36.42
31044;BME280;17710;52.520;13.352;2022-07-06T01:54:52;101683.88;;;23.56;36.02
31044;BME280;17710;52.520;13.352;2022-07-06T01:57:18;101685.09;;;23.39;36.09
31044;BME280;17710;52.520;13.352;2022-07-06T01:59:45;101683.06;;;23.30;36.35
31044;BME280;17710;52.520;13.352;2022-07-06T02:02:11;101690.34;;;23.54;35.74
31044;BME280;17710;52.520;13.352;2022-07-06T02:04:38;101694.16;;;23.38;35.88
31044;BME280;17710;52.520;13.352;2022-07-06T02:07:05;101691.22;;;23.54;35.63
31044;BME280;17710;52.520;13.352;2022-07-06T02:09:31;101703.25;;;23.61;34.96
31044;BME280;17710;52.520;13.352;2022-07-06T02:11:59;101711.69;;;23.20;36.02
31044;BME280;17710;52.520;13.352;2022-07-06T02:14:27;101718.03;;;22.83;37.21
31044;BME280;17710;52.520;13.352;2022-07-06T02:16:54;101730.81;;;22.66;37.95
31044;BME280;17710;52.520;13.352;2022-07-06T02:19:20;101735.13;;;22.44;38.81
31044;BME280;17710;52.520;13.352;2022-07-06T02:21:46;101737.69;;;22.33;39.51
31044;BME280;17710;52.520;13.352;2022-07-06T02:24:13;101730.47;;;22.46;40.24
31044;BME280;17710;52.520;13.352;2022-07-06T02:26:39;101742.34;;;22.69;40.13
31044;BME280;17710;52.520;13.352;2022-07-06T02:29:07;101741.59;;;22.54;41.14
31044;BME280;17710;52.520;13.352;2022-07-06T02:31:33;101742.84;;;22.10;42.63
31044;BME280;17710;52.520;13.352;2022-07-06T02:34:00;101739.53;;;21.39;45.25
31044;BME280;17710;52.520;13.352;2022-07-06T02:36:26;101731.75;;;21.61;44.97
31044;BME280;17710;52.520;13.352;2022-07-06T02:38:53;101726.00;;;21.53;45.42
31044;BME280;17710;52.520;13.352;2022-07-06T02:41:19;101735.53;;;21.59;45.82
31044;BME280;17710;52.520;13.352;2022-07-06T02:43:45;101745.56;;;21.69;46.28
31044;BME280;17710;52.520;13.352;2022-07-06T02:46:13;101745.84;;;21.52;46.68
31044;BME280;17710;52.520;13.352;2022-07-06T02:48:40;101742.56;;;21.47;47.56
31044;BME280;17710;52.520;13.352;2022-07-06T02:51:06;101745.94;;;22.04;46.22
31044;BME280;17710;52.520;13.352;2022-07-06T02:53:32;101750.06;;;22.22;45.72
31044;BME280;17710;52.520;13.352;2022-07-06T02:55:59;101748.28;;;21.96;44.63
31044;BME280;17710;52.520;13.352;2022-07-06T02:58:25;101739.19;;;21.84;45.52
31044;BME280;17710;52.520;13.352;2022-07-06T03:00:52;101737.31;;;21.45;46.26
31044;BME280;17710;52.520;13.352;2022-07-06T03:03:20;101740.38;;;21.66;46.55
31044;BME280;17710;52.520;13.352;2022-07-06T03:05:46;101747.88;;;22.02;46.28
31044;BME280;17710;52.520;13.352;2022-07-06T03:08:13;101746.56;;;21.81;46.95
31044;BME280;17710;52.520;13.352;2022-07-06T03:10:40;101755.72;;;21.78;46.78
31044;BME280;17710;52.520;13.352;2022-07-06T03:13:07;101751.50;;;21.74;46.69
31044;BME280;17710;52.520;13.352;2022-07-06T03:15:33;101759.31;;;21.38;46.97
31044;BME280;17710;52.520;13.352;2022-07-06T03:17:59;101760.66;;;21.31;46.98
31044;BME280;17710;52.520;13.352;2022-07-06T03:20:27;101756.25;;;21.30;46.61
31044;BME280;17710;52.520;13.352;2022-07-06T03:22:53;101753.94;;;21.09;47.31
31044;BME280;17710;52.520;13.352;2022-07-06T03:25:20;101755.75;;;21.09;48.38
31044;BME280;17710;52.520;13.352;2022-07-06T03:27:47;101764.88;;;21.35;47.16
31044;BME280;17710;52.520;13.352;2022-07-06T03:30:13;101753.47;;;21.31;47.04
31044;BME280;17710;52.520;13.352;2022-07-06T03:32:40;101755.31;;;21.17;47.02
31044;BME280;17710;52.520;13.352;2022-07-06T03:35:07;101748.75;;;21.21;46.65
31044;BME280;17710;52.520;13.352;2022-07-06T03:37:35;101748.47;;;21.25;46.99
31044;BME280;17710;52.520;13.352;2022-07-06T03:40:01;101752.31;;;20.93;47.14
31044;BME280;17710;52.520;13.352;2022-07-06T03:42:28;101756.44;;;20.98;47.18
31044;BME280;17710;52.520;13.352;2022-07-06T03:44:54;101751.25;;;20.81;47.03
31044;BME280;17710;52.520;13.352;2022-07-06T03:47:20;101756.22;;;20.87;46.99
31044;BME280;17710;52.520;13.352;2022-07-06T03:49:47;101751.84;;;20.86;47.15
31044;BME280;17710;52.520;13.352;2022-07-06T03:52:14;101757.84;;;20.76;47.41
31044;BME280;17710;52.520;13.352;2022-07-06T03:54:41;101755.84;;;21.07;46.85
31044;BME280;17710;52.520;13.352;2022-07-06T03:57:08;101747.72;;;21.23;47.05
31044;BME280;17710;52.520;13.352;2022-07-06T03:59:36;101750.28;;;21.39;45.73
31044;BME280;17710;52.520;13.352;2022-07-06T04:02:03;101751.16;;;21.39;46.34
31044;BME280;17710;52.520;13.352;2022-07-06T04:04:29;101756.69;;;21.51;45.94
31044;BME280;17710;52.520;13.352;2022-07-06T04:06:55;101753.16;;;21.36;45.54
31044;BME280;17710;52.520;13.352;2022-07-06T04:09:22;101755.19;;;21.32;45.62
31044;BME280;17710;52.520;13.352;2022-07-06T04:11:49;101760.31;;;21.50;45.34
31044;BME280;17710;52.520;13.352;2022-07-06T04:14:16;101755.25;;;21.45;45.09
31044;BME280;17710;52.520;13.352;2022-07-06T04:16:43;101762.22;;;21.62;44.26
31044;BME280;17710;52.520;13.352;2022-07-06T04:19:09;101757.78;;;21.61;44.11
31044;BME280;17710;52.520;13.352;2022-07-06T04:21:35;101758.09;;;21.56;44.57
31044;BME280;17710;52.520;13.352;2022-07-06T04:24:03;101757.25;;;21.41;45.02
31044;BME280;17710;52.520;13.352;2022-07-06T04:26:29;101755.44;;;21.42;44.93
31044;BME280;17710;52.520;13.352;2022-07-06T04:28:57;101756.22;;;21.44;45.19
31044;BME280;17710;52.520;13.352;2022-07-06T04:31:23;101762.44;;;21.59;44.82
31044;BME280;17710;52.520;13.352;2022-07-06T04:33:50;101758.06;;;21.70;44.43
31044;BME280;17710;52.520;13.352;2022-07-06T04:36:16;101756.63;;;21.38;44.85
31044;BME280;17710;52.520;13.352;2022-07-06T04:38:43;101752.59;;;21.31;44.64
31044;BME280;17710;52.520;13.352;2022-07-06T04:41:09;101752.53;;;21.59;44.03
31044;BME280;17710;52.520;13.352;2022-07-06T04:43:35;101752.72;;;21.56;44.03
31044;BME280;17710;52.520;13.352;2022-07-06T04:46:03;101759.03;;;21.69;44.12
31044;BME280;17710;52.520;13.352;2022-07-06T04:48:30;101757.78;;;21.87;43.23
31044;BME280;17710;52.520;13.352;2022-07-06T04:50:57;101758.13;;;22.10;42.60
31044;BME280;17710;52.520;13.352;2022-07-06T04:53:23;101756.97;;;22.26;42.68
31044;BME280;17710;52.520;13.352;2022-07-06T04:55:50;101751.91;;;21.68;42.83
31044;BME280;17710;52.520;13.352;2022-07-06T04:58:16;101760.94;;;21.67;43.07
31044;BME280;17710;52.520;13.352;2022-07-06T05:00:43;101748.09;;;21.31;43.95
31044;BME280;17710;52.520;13.352;2022-07-06T05:03:10;101756.44;;;20.98;44.83
31044;BME280;17710;52.520;13.352;2022-07-06T05:05:37;101766.13;;;22.24;42.15
31044;BME280;17710;52.520;13.352;2022-07-06T05:08:04;101750.41;;;23.19;40.55
31044;BME280;17710;52.520;13.352;2022-07-06T05:10:30;101759.75;;;23.75;38.81
31044;BME280;17710;52.520;13.352;2022-07-06T05:12:57;101760.75;;;24.09;38.16
31044;BME280;17710;52.520;13.352;2022-07-06T05:17:49;101769.31;;;24.03;38.12
31044;BME280;17710;52.520;13.352;2022-07-06T05:20:17;101764.69;;;25.31;35.89
31044;BME280;17710;52.520;13.352;2022-07-06T05:22:44;101767.84;;;24.80;36.40
31044;BME280;17710;52.520;13.352;2022-07-06T05:25:10;101768.88;;;23.62;37.93
31044;BME280;17710;52.520;13.352;2022-07-06T05:27:37;101761.25;;;23.56;38.64
31044;BME280;17710;52.520;13.352;2022-07-06T05:30:05;101752.63;;;23.98;37.92
31044;BME280;17710;52.520;13.352;2022-07-06T05:32:39;101758.53;;;24.03;37.42
31044;BME280;17710;52.520;13.352;2022-07-06T05:35:06;101755.13;;;23.28;39.11
31044;BME280;17710;52.520;13.352;2022-07-06T05:37:34;101751.47;;;23.29;38.58
31044;BME280;17710;52.520;13.352;2022-07-06T05:40:00;101761.19;;;23.19;38.94
31044;BME280;17710;52.520;13.352;2022-07-06T05:42:27;101759.06;;;22.86;39.60
31044;BME280;17710;52.520;13.352;2022-07-06T05:44:55;101757.16;;;22.76;39.47
31044;BME280;17710;52.520;13.352;2022-07-06T05:47:23;101764.66;;;23.09;39.14
31044;BME280;17710;52.520;13.352;2022-07-06T05:50:07;101766.59;;;22.43;39.93
31044;BME280;17710;52.520;13.352;2022-07-06T05:52:43;101766.06;;;22.63;39.97
31044;BME280;17710;52.520;13.352;2022-07-06T05:55:10;101772.06;;;23.18;38.59
31044;BME280;17710;52.520;13.352;2022-07-06T05:57:37;101763.41;;;22.76;39.32
31044;BME280;17710;52.520;13.352;2022-07-06T06:00:04;101760.56;;;22.78;39.06
31044;BME280;17710;52.520;13.352;2022-07-06T06:02:38;101764.34;;;22.50;39.86
31044;BME280;17710;52.520;13.352;2022-07-06T06:05:06;101764.53;;;22.47;40.19
31044;BME280;17710;52.520;13.352;2022-07-06T06:07:33;101758.97;;;22.75;39.72
31044;BME280;17710;52.520;13.352;2022-07-06T06:10:03;101760.81;;;22.87;39.35
31044;BME280;17710;52.520;13.352;2022-07-06T06:12:29;101757.75;;;22.66;39.76
31044;BME280;17710;52.520;13.352;2022-07-06T06:14:56;101758.94;;;22.37;40.47
31044;BME280;17710;52.520;13.352;2022-07-06T06:17:23;101762.63;;;22.74;39.70
31044;BME280;17710;52.520;13.352;2022-07-06T06:19:49;101768.97;;;22.98;39.58
31044;BME280;17710;52.520;13.352;2022-07-06T06:22:16;101761.13;;;23.44;38.60
31044;BME280;17710;52.520;13.352;2022-07-06T06:24:42;101763.53;;;23.97;37.55
31044;BME280;17710;52.520;13.352;2022-07-06T06:27:10;101771.53;;;23.25;38.60
31044;BME280;17710;52.520;13.352;2022-07-06T06:29:37;101765.88;;;23.41;38.26
31044;BME280;17710;52.520;13.352;2022-07-06T06:32:04;101756.03;;;23.16;38.74
31044;BME280;17710;52.520;13.352;2022-07-06T06:34:31;101767.47;;;22.94;39.00
31044;BME280;17710;52.520;13.352;2022-07-06T06:37:02;101766.81;;;22.65;39.62
31044;BME280;17710;52.520;13.352;2022-07-06T06:39:32;101763.25;;;22.65;40.00
31044;BME280;17710;52.520;13.352;2022-07-06T06:41:59;101769.38;;;23.18;39.44
31044;BME280;17710;52.520;13.352;2022-07-06T06:44:27;101763.88;;;23.68;37.90
31044;BME280;17710;52.520;13.352;2022-07-06T06:46:53;101773.66;;;24.17;37.22
31044;BME280;17710;52.520;13.352;2022-07-06T06:49:20;101766.81;;;24.48;36.36
31044;BME280;17710;52.520;13.352;2022-07-06T06:51:46;101768.31;;;24.63;35.82
31044;BME280;17710;52.520;13.352;2022-07-06T06:54:12;101776.13;;;25.12;35.03
31044;BME280;17710;52.520;13.352;2022-07-06T06:56:39;101776.88;;;24.46;36.14
31044;BME280;17710;52.520;13.352;2022-07-06T06:59:05;101772.50;;;23.50;37.66
31044;BME280;17710;52.520;13.352;2022-07-06T07:01:36;101772.63;;;23.23;38.37
31044;BME280;17710;52.520;13.352;2022-07-06T07:04:03;101768.03;;;22.87;39.15
31044;BME280;17710;52.520;13.352;2022-07-06T07:06:31;101767.78;;;23.64;37.65
31044;BME280;17710;52.520;13.352;2022-07-06T07:08:57;101767.22;;;24.19;36.56
31044;BME280;17710;52.520;13.352;2022-07-06T07:11:24;101776.63;;;24.14;35.71
31044;BME280;17710;52.520;13.352;2022-07-06T07:13:50;101771.63;;;23.73;36.69
31044;BME280;17710;52.520;13.352;2022-07-06T07:16:17;101780.63;;;24.32;35.86
31044;BME280;17710;52.520;13.352;2022-07-06T07:18:45;101781.06;;;23.67;36.14
31044;BME280;17710;52.520;13.352;2022-07-06T07:21:11;101779.47;;;23.52;36.44
31044;BME280;17710;52.520;13.352;2022-07-06T07:23:37;101780.13;;;23.30;36.05
31044;BME280;17710;52.520;13.352;2022-07-06T07:26:04;101779.97;;;23.94;35.59
31044;BME280;17710;52.520;13.352;2022-07-06T07:28:31;101782.31;;;24.68;34.22
31044;BME280;17710;52.520;13.352;2022-07-06T07:31:01;101776.72;;;24.36;33.25
31044;BME280;17710;52.520;13.352;2022-07-06T07:33:27;101783.81;;;24.61;32.88
31044;BME280;17710;52.520;13.352;2022-07-06T07:35:55;101783.94;;;24.82;32.31
31044;BME280;17710;52.520;13.352;2022-07-06T07:38:22;101780.72;;;24.54;32.53
31044;BME280;17710;52.520;13.352;2022-07-06T07:40:48;101780.34;;;24.59;32.31
31044;BME280;17710;52.520;13.352;2022-07-06T07:43:15;101779.31;;;25.06;31.99
31044;BME280;17710;52.520;13.352;2022-07-06T07:45:41;101781.09;;;24.61;32.60
31044;BME280;17710;52.520;13.352;2022-07-06T07:48:08;101778.06;;;24.31;32.44
31044;BME280;17710;52.520;13.352;2022-07-06T07:50:34;101781.63;;;24.42;32.05
31044;BME280;17710;52.520;13.352;2022-07-06T07:53:02;101785.31;;;24.06;32.45
31044;BME280;17710;52.520;13.352;2022-07-06T07:55:29;101789.97;;;24.28;32.17
31044;BME280;17710;52.520;13.352;2022-07-06T07:57:55;101788.81;;;24.19;33.09
31044;BME280;17710;52.520;13.352;2022-07-06T08:00:22;101785.72;;;24.48;32.58
31044;BME280;17710;52.520;13.352;2022-07-06T08:02:49;101792.97;;;23.89;32.54
31044;BME280;17710;52.520;13.352;2022-07-06T08:05:16;101786.06;;;24.43;31.95
31044;BME280;17710;52.520;13.352;2022-07-06T08:07:42;101788.03;;;25.10;31.02
31044;BME280;17710;52.520;13.352;2022-07-06T08:10:10;101781.75;;;25.42;30.39
31044;BME280;17710;52.520;13.352;2022-07-06T08:12:37;101789.03;;;25.31;31.03
31044;BME280;17710;52.520;13.352;2022-07-06T08:15:05;101792.00;;;25.06;31.53
31044;BME280;17710;52.520;13.352;2022-07-06T08:17:31;101789.03;;;25.20;31.48
31044;BME280;17710;52.520;13.352;2022-07-06T08:19:58;101787.66;;;25.14;31.70
31044;BME280;17710;52.520;13.352;2022-07-06T08:22:25;101794.72;;;24.71;32.11
31044;BME280;17710;52.520;13.352;2022-07-06T08:24:52;101795.72;;;24.70;32.06
31044;BME280;17710;52.520;13.352;2022-07-06T08:27:20;101786.94;;;25.23;31.58
31044;BME280;17710;52.520;13.352;2022-07-06T08:29:46;101792.13;;;24.69;31.74
31044;BME280;17710;52.520;13.352;2022-07-06T08:32:12;101788.00;;;24.30;32.07
31044;BME280;17710;52.520;13.352;2022-07-06T08:34:39;101789.03;;;25.20;31.18
31044;BME280;17710;52.520;13.352;2022-07-06T08:37:05;101784.09;;;25.36;30.05
31044;BME280;17710;52.520;13.352;2022-07-06T08:39:32;101790.19;;;24.82;30.29
31044;BME280;17710;52.520;13.352;2022-07-06T08:42:00;101792.41;;;24.77;30.31
31044;BME280;17710;52.520;13.352;2022-07-06T08:44:29;101799.38;;;24.57;29.78
31044;BME280;17710;52.520;13.352;2022-07-06T08:46:57;101795.59;;;24.60;30.16
31044;BME280;17710;52.520;13.352;2022-07-06T08:49:25;101791.41;;;24.21;29.25
31044;BME280;17710;52.520;13.352;2022-07-06T08:51:52;101774.44;;;24.54;29.30
31044;BME280;17710;52.520;13.352;2022-07-06T08:54:21;101803.94;;;24.09;29.63
31044;BME280;17710;52.520;13.352;2022-07-06T08:56:48;101788.97;;;24.29;29.06
31044;BME280;17710;52.520;13.352;2022-07-06T08:59:15;101786.81;;;24.91;28.18
31044;BME280;17710;52.520;13.352;2022-07-06T09:01:44;101793.19;;;25.35;27.91
31044;BME280;17710;52.520;13.352;2022-07-06T09:04:12;101789.25;;;25.28;28.08
31044;BME280;17710;52.520;13.352;2022-07-06T09:06:41;101790.22;;;25.60;27.89
31044;BME280;17710;52.520;13.352;2022-07-06T09:09:09;101793.03;;;25.48;28.16
31044;BME280;17710;52.520;13.352;2022-07-06T09:11:36;101794.91;;;25.02;27.98
31044;BME280;17710;52.520;13.352;2022-07-06T09:14:06;101788.91;;;25.32;28.00
31044;BME280;17710;52.520;13.352;2022-07-06T09:16:32;101792.28;;;24.68;28.65
31044;BME280;17710;52.520;13.352;2022-07-06T09:19:00;101789.00;;;24.86;28.38
31044;BME280;17710;52.520;13.352;2022-07-06T09:21:29;101793.09;;;25.03;26.18
31044;BME280;17710;52.520;13.352;2022-07-06T09:23:58;101797.44;;;24.82;25.96
31044;BME280;17710;52.520;13.352;2022-07-06T09:26:26;101799.00;;;25.19;25.88
31044;BME280;17710;52.520;13.352;2022-07-06T09:28:55;101792.66;;;24.85;26.18
31044;BME280;17710;52.520;13.352;2022-07-06T09:31:22;101797.06;;;24.29;26.79
31044;BME280;17710;52.520;13.352;2022-07-06T09:33:56;101792.44;;;24.07;27.61
31044;BME280;17710;52.520;13.352;2022-07-06T09:36:48;101787.38;;;24.27;27.39
31044;BME280;17710;52.520;13.352;2022-07-06T09:39:19;101795.41;;;25.08;26.82
31044;BME280;17710;52.520;13.352;2022-07-06T09:41:50;101793.72;;;25.07;26.62
31044;BME280;17710;52.520;13.352;2022-07-06T09:44:26;101799.09;;;24.14;26.53
31044;BME280;17710;52.520;13.352;2022-07-06T09:46:55;101793.75;;;24.26;26.87
31044;BME280;17710;52.520;13.352;2022-07-06T09:49:22;101788.09;;;24.05;28.44
31044;BME280;17710;52.520;13.352;2022-07-06T09:51:52;101799.03;;;24.27;28.02
31044;BME280;17710;52.520;13.352;2022-07-06T09:54:19;101802.25;;;24.32;27.96
31044;BME280;17710;52.520;13.352;2022-07-06T09:56:47;101807.19;;;24.38;28.75
31044;BME280;17710;52.520;13.352;2022-07-06T09:59:17;101797.25;;;24.50;28.85
31044;BME280;17710;52.520;13.352;2022-07-06T10:01:46;101805.59;;;23.88;29.21
31044;BME280;17710;52.520;13.352;2022-07-06T10:04:14;101807.00;;;24.29;29.22
31044;BME280;17710;52.520;13.352;2022-07-06T10:06:44;101807.06;;;25.41;28.03
31044;BME280;17710;52.520;13.352;2022-07-06T10:09:13;101805.34;;;25.74;27.52
31044;BME280;17710;52.520;13.352;2022-07-06T10:11:43;101811.03;;;26.03;27.15
31044;BME280;17710;52.520;13.352;2022-07-06T10:14:12;101804.97;;;25.78;27.43
31044;BME280;17710;52.520;13.352;2022-07-06T10:16:43;101811.16;;;25.36;28.51
31044;BME280;17710;52.520;13.352;2022-07-06T10:19:11;101813.84;;;25.69;28.18
31044;BME280;17710;52.520;13.352;2022-07-06T10:21:40;101810.28;;;25.69;28.32
31044;BME280;17710;52.520;13.352;2022-07-06T10:24:08;101810.31;;;25.24;29.06
31044;BME280;17710;52.520;13.352;2022-07-06T10:26:36;101818.28;;;25.37;28.65
31044;BME280;17710;52.520;13.352;2022-07-06T10:29:04;101811.59;;;25.74;28.10
31044;BME280;17710;52.520;13.352;2022-07-06T10:31:33;101820.59;;;25.86;28.28
31044;BME280;17710;52.520;13.352;2022-07-06T10:34:02;101815.56;;;25.70;28.59
31044;BME280;17710;52.520;13.352;2022-07-06T10:36:30;101813.91;;;25.90;27.99
31044;BME280;17710;52.520;13.352;2022-07-06T10:38:57;101805.75;;;25.25;28.04
31044;BME280;17710;52.520;13.352;2022-07-06T10:41:44;101804.63;;;25.38;28.36
31044;BME280;17710;52.520;13.352;2022-07-06T10:44:17;101801.75;;;25.85;27.93
31044;BME280;17710;52.520;13.352;2022-07-06T10:46:50;101802.34;;;25.88;28.00
31044;BME280;17710;52.520;13.352;2022-07-06T10:49:18;101798.06;;;25.86;27.50
31044;BME280;17710;52.520;13.352;2022-07-06T10:51:47;101793.81;;;26.04;27.63
31044;BME280;17710;52.520;13.352;2022-07-06T10:54:15;101796.63;;;25.48;28.48
31044;BME280;17710;52.520;13.352;2022-07-06T10:56:42;101799.69;;;25.77;27.96
31044;BME280;17710;52.520;13.352;2022-07-06T10:59:12;101786.72;;;25.92;27.50
31044;BME280;17710;52.520;13.352;2022-07-06T11:01:38;101788.34;;;26.15;27.19
31044;BME280;17710;52.520;13.352;2022-07-06T11:04:07;101788.75;;;26.63;26.88
31044;BME280;17710;52.520;13.352;2022-07-06T11:06:35;101784.28;;;27.04;26.28
31044;BME280;17710;52.520;13.352;2022-07-06T11:09:31;101787.94;;;26.31;26.28
31044;BME280;17710;52.520;13.352;2022-07-06T11:11:58;101783.34;;;25.45;27.72
31044;BME280;17710;52.520;13.352;2022-07-06T11:14:38;101789.03;;;25.31;28.69
31044;BME280;17710;52.520;13.352;2022-07-06T11:17:09;101800.88;;;24.27;30.21
31044;BME280;17710;52.520;13.352;2022-07-06T11:19:36;101794.25;;;24.31;29.67
31044;BME280;17710;52.520;13.352;2022-07-06T11:22:06;101796.84;;;24.32;30.09
31044;BME280;17710;52.520;13.352;2022-07-06T11:24:35;101788.94;;;24.53;29.83
31044;BME280;17710;52.520;13.352;2022-07-06T11:27:03;101800.44;;;24.90;29.45
31044;BME280;17710;52.520;13.352;2022-07-06T11:29:33;101792.69;;;25.41;27.80
31044;BME280;17710;52.520;13.352;2022-07-06T11:32:05;101791.88;;;25.95;26.29
31044;BME280;17710;52.520;13.352;2022-07-06T11:34:36;101793.75;;;26.47;24.91
31044;BME280;17710;52.520;13.352;2022-07-06T11:37:04;101795.34;;;26.49;25.74
31044;BME280;17710;52.520;13.352;2022-07-06T11:39:39;101797.78;;;26.52;25.04
31044;BME280;17710;52.520;13.352;2022-07-06T11:42:07;101795.47;;;26.69;25.02
31044;BME280;17710;52.520;13.352;2022-07-06T11:44:35;101794.66;;;26.98;25.05
31044;BME280;17710;52.520;13.352;2022-07-06T11:47:02;101792.22;;;26.54;25.95
31044;BME280;17710;52.520;13.352;2022-07-06T11:49:30;101797.50;;;26.35;25.76
31044;BME280;17710;52.520;13.352;2022-07-06T11:51:57;101793.38;;;25.88;26.37
31044;BME280;17710;52.520;13.352;2022-07-06T11:54:25;101792.09;;;26.55;26.42
31044;BME280;17710;52.520;13.352;2022-07-06T11:56:54;101786.84;;;27.05;25.49
31044;BME280;17710;52.520;13.352;2022-07-06T11:59:23;101785.66;;;26.98;25.20
31044;BME280;17710;52.520;13.352;2022-07-06T12:01:57;101781.47;;;26.64;26.11
31044;BME280;17710;52.520;13.352;2022-07-06T12:04:24;101778.19;;;25.64;26.83
31044;BME280;17710;52.520;13.352;2022-07-06T12:06:51;101780.66;;;25.45;27.18
31044;BME280;17710;52.520;13.352;2022-07-06T12:09:18;101774.72;;;25.62;27.14
31044;BME280;17710;52.520;13.352;2022-07-06T12:11:46;101778.72;;;25.14;28.54
31044;BME280;17710;52.520;13.352;2022-07-06T12:14:15;101781.50;;;25.46;28.16
31044;BME280;17710;52.520;13.352;2022-07-06T12:16:42;101780.63;;;25.67;27.67
31044;BME280;17710;52.520;13.352;2022-07-06T12:19:08;101776.47;;;25.63;28.06
31044;BME280;17710;52.520;13.352;2022-07-06T12:21:42;101782.84;;;25.62;28.42
31044;BME280;17710;52.520;13.352;2022-07-06T12:24:09;101774.25;;;25.46;28.37
31044;BME280;17710;52.520;13.352;2022-07-06T12:26:39;101771.84;;;25.86;28.25
31044;BME280;17710;52.520;13.352;2022-07-06T12:29:08;101775.03;;;25.91;27.94
31044;BME280;17710;52.520;13.352;2022-07-06T12:31:37;101776.16;;;26.41;27.32
31044;BME280;17710;52.520;13.352;2022-07-06T12:34:11;101781.53;;;26.52;26.73
31044;BME280;17710;52.520;13.352;2022-07-06T12:36:42;101768.50;;;27.58;25.42
31044;BME280;17710;52.520;13.352;2022-07-06T12:39:10;101759.78;;;27.55;24.95
31044;BME280;17710;52.520;13.352;2022-07-06T12:41:37;101758.25;;;27.81;24.78
31044;BME280;17710;52.520;13.352;2022-07-06T12:44:06;101757.94;;;27.65;24.91
31044;BME280;17710;52.520;13.352;2022-07-06T12:46:35;101751.44;;;28.16;24.95
31044;BME280;17710;52.520;13.352;2022-07-06T12:49:11;101742.66;;;27.93;24.85